sensor_id;sensor_type;location;lat;lon;timestamp;pressure;altitude;pressure_sealevel;temperature;humidity
12763;BME280;6445;52.490;13.378;2023-05-02T00:01:24;51949.97;;;-146.10;44.66
12763;BME280;6445;52.490;13.378;2023-05-02T00:03:49;51953.97;;;-146.10;45.64
12763;BME280;6445;52.490;13.378;2023-05-02T00:06:15;51953.97;;;-146.10;45.44
12763;BME280;6445;52.490;13.378;2023-05-02T00:08:41;51957.97;;;-146.10;46.07
12763;BME280;6445;52.490;13.378;2023-05-02T00:11:06;51971.97;;;-146.10;45.46
12763;BME280;6445;52.490;13.378;2023-05-02T00:13:31;51935.94;;;-146.10;45.10
12763;BME280;6445;52.490;13.378;2023-05-02T00:15:56;51931.94;;;-146.10;45.77
12763;BME280;6445;52.490;13.378;2023-05-02T00:18:22;51949.97;;;-146.10;46.08
12763;BME280;6445;52.490;13.378;2023-05-02T00:20:49;51957.97;;;-146.10;45.79
12763;BME280;6445;52.490;13.378;2023-05-02T00:23:14;51951.97;;;-146.10;45.84
12763;BME280;6445;52.490;13.378;2023-05-02T00:25:43;51939.94;;;-146.10;46.49
12763;BME280;6445;52.490;13.378;2023-05-02T00:28:09;51937.94;;;-146.10;46.24
12763;BME280;6445;52.490;13.378;2023-05-02T00:30:35;51955.97;;;-146.10;46.41
12763;BME280;6445;52.490;13.378;2023-05-02T00:33:00;51935.94;;;-146.10;46.50
12763;BME280;6445;52.490;13.378;2023-05-02T00:35:26;51939.94;;;-146.10;47.07
12763;BME280;6445;52.490;13.378;2023-05-02T00:37:51;51933.94;;;-146.10;47.21
12763;BME280;6445;52.490;13.378;2023-05-02T00:40:16;51919.94;;;-146.10;48.24
12763;BME280;6445;52.490;13.378;2023-05-02T00:42:41;51915.94;;;-146.10;48.29
12763;BME280;6445;52.490;13.378;2023-05-02T00:45:07;51939.94;;;-146.10;48.33
12763;BME280;6445;52.490;13.378;2023-05-02T00:47:32;51941.94;;;-146.10;49.43
12763;BME280;6445;52.490;13.378;2023-05-02T00:49:58;51911.94;;;-146.10;49.92
12763;BME280;6445;52.490;13.378;2023-05-02T00:52:25;51929.94;;;-146.10;50.00
12763;BME280;6445;52.490;13.378;2023-05-02T00:54:50;51933.94;;;-146.10;50.70
12763;BME280;6445;52.490;13.378;2023-05-02T00:57:16;51911.94;;;-146.10;50.91
12763;BME280;6445;52.490;13.378;2023-05-02T00:59:41;51943.97;;;-146.10;51.15
12763;BME280;6445;52.490;13.378;2023-05-02T01:04:59;51915.94;;;-146.10;52.07
12763;BME280;6445;52.490;13.378;2023-05-02T01:10:23;51899.94;;;-146.10;53.10
12763;BME280;6445;52.490;13.378;2023-05-02T01:12:59;51915.94;;;-146.10;54.16
12763;BME280;6445;52.490;13.378;2023-05-02T01:15:27;51899.94;;;-146.10;54.67
12763;BME280;6445;52.490;13.378;2023-05-02T01:17:53;51907.94;;;-146.10;55.93
12763;BME280;6445;52.490;13.378;2023-05-02T01:20:22;51891.94;;;-146.10;55.75
12763;BME280;6445;52.490;13.378;2023-05-02T01:22:50;51903.94;;;-146.10;55.73
12763;BME280;6445;52.490;13.378;2023-05-02T01:25:28;51921.94;;;-146.10;56.22
12763;BME280;6445;52.490;13.378;2023-05-02T01:30:48;51937.94;;;-146.10;57.01
12763;BME280;6445;52.490;13.378;2023-05-02T01:33:16;51891.94;;;-146.10;57.02
12763;BME280;6445;52.490;13.378;2023-05-02T01:35:45;51897.94;;;-146.10;57.47
12763;BME280;6445;52.490;13.378;2023-05-02T01:38:13;51927.94;;;-146.10;57.79
12763;BME280;6445;52.490;13.378;2023-05-02T01:40:42;51903.94;;;-146.10;58.92
12763;BME280;6445;52.490;13.378;2023-05-02T01:43:10;51907.94;;;-146.10;58.54
12763;BME280;6445;52.490;13.378;2023-05-02T01:45:36;51903.94;;;-146.10;59.77
12763;BME280;6445;52.490;13.378;2023-05-02T01:48:05;51915.94;;;-146.10;59.90
12763;BME280;6445;52.490;13.378;2023-05-02T01:50:30;51903.94;;;-146.10;60.50
12763;BME280;6445;52.490;13.378;2023-05-02T01:52:57;51909.94;;;-146.10;61.10
12763;BME280;6445;52.490;13.378;2023-05-02T01:55:23;51909.94;;;-146.10;61.61
12763;BME280;6445;52.490;13.378;2023-05-02T01:57:52;51905.94;;;-146.10;62.27
12763;BME280;6445;52.490;13.378;2023-05-02T02:00:18;51875.94;;;-146.10;63.17
12763;BME280;6445;52.490;13.378;2023-05-02T02:02:46;51903.94;;;-146.10;62.38
12763;BME280;6445;52.490;13.378;2023-05-02T02:05:13;51895.94;;;-146.10;63.68
12763;BME280;6445;52.490;13.378;2023-05-02T02:07:38;51879.94;;;-146.10;64.20
12763;BME280;6445;52.490;13.378;2023-05-02T02:10:04;51885.94;;;-146.10;64.16
12763;BME280;6445;52.490;13.378;2023-05-02T02:12:35;51867.94;;;-146.10;64.66
12763;BME280;6445;52.490;13.378;2023-05-02T02:15:06;51885.94;;;-146.10;65.53
12763;BME280;6445;52.490;13.378;2023-05-02T02:17:38;51875.94;;;-146.10;65.58
12763;BME280;6445;52.490;13.378;2023-05-02T02:20:05;51847.94;;;-146.10;66.86
12763;BME280;6445;52.490;13.378;2023-05-02T02:22:33;51857.94;;;-146.10;67.58
12763;BME280;6445;52.490;13.378;2023-05-02T02:25:02;51843.94;;;-146.10;67.88
12763;BME280;6445;52.490;13.378;2023-05-02T02:27:28;51841.94;;;-146.10;68.18
12763;BME280;6445;52.490;13.378;2023-05-02T02:29:53;51845.94;;;-146.10;68.19
12763;BME280;6445;52.490;13.378;2023-05-02T02:32:18;51827.94;;;-146.10;68.72
12763;BME280;6445;52.490;13.378;2023-05-02T02:34:44;51823.94;;;-146.10;70.07
12763;BME280;6445;52.490;13.378;2023-05-02T02:37:18;51815.94;;;-146.10;70.48
12763;BME280;6445;52.490;13.378;2023-05-02T02:42:30;51781.91;;;-146.10;73.30
12763;BME280;6445;52.490;13.378;2023-05-02T02:45:12;51779.91;;;-146.10;72.57
12763;BME280;6445;52.490;13.378;2023-05-02T02:47:43;51763.91;;;-146.10;73.10
12763;BME280;6445;52.490;13.378;2023-05-02T02:50:19;51777.91;;;-146.10;73.08
12763;BME280;6445;52.490;13.378;2023-05-02T02:53:01;51775.91;;;-146.10;73.96
12763;BME280;6445;52.490;13.378;2023-05-02T02:55:44;51703.91;;;-146.10;76.10
12763;BME280;6445;52.490;13.378;2023-05-02T02:58:21;51699.91;;;-146.10;76.44
12763;BME280;6445;52.490;13.378;2023-05-02T03:00:52;51715.91;;;-146.10;76.21
12763;BME280;6445;52.490;13.378;2023-05-02T03:03:19;51707.91;;;-146.10;77.15
12763;BME280;6445;52.490;13.378;2023-05-02T03:05:46;51675.91;;;-146.10;76.82
12763;BME280;6445;52.490;13.378;2023-05-02T03:08:12;51659.91;;;-146.10;77.56
12763;BME280;6445;52.490;13.378;2023-05-02T03:10:37;51655.91;;;-146.10;78.71
12763;BME280;6445;52.490;13.378;2023-05-02T03:13:03;51635.91;;;-146.10;77.48
12763;BME280;6445;52.490;13.378;2023-05-02T03:18:25;51635.91;;;-146.10;77.59
12763;BME280;6445;52.490;13.378;2023-05-02T03:20:51;51621.88;;;-146.10;78.83
12763;BME280;6445;52.490;13.378;2023-05-02T03:23:16;51605.88;;;-146.10;78.73
12763;BME280;6445;52.490;13.378;2023-05-02T03:25:41;51595.88;;;-146.10;79.28
12763;BME280;6445;52.490;13.378;2023-05-02T03:28:06;51573.88;;;-146.10;79.66
12763;BME280;6445;52.490;13.378;2023-05-02T03:30:32;51545.88;;;-146.10;80.56
12763;BME280;6445;52.490;13.378;2023-05-02T03:32:57;51499.88;;;-146.10;82.32
12763;BME280;6445;52.490;13.378;2023-05-02T03:35:22;51477.88;;;-146.10;81.76
12763;BME280;6445;52.490;13.378;2023-05-02T03:37:47;51511.88;;;-146.10;81.59
12763;BME280;6445;52.490;13.378;2023-05-02T03:40:13;51437.88;;;-146.10;83.51
12763;BME280;6445;52.490;13.378;2023-05-02T03:42:38;51401.88;;;-146.10;83.44
12763;BME280;6445;52.490;13.378;2023-05-02T03:45:05;51331.84;;;-146.10;84.64
12763;BME280;6445;52.490;13.378;2023-05-02T03:47:31;51285.84;;;-146.10;85.88
12763;BME280;6445;52.490;13.378;2023-05-02T03:49:56;51197.84;;;-146.10;85.96
12763;BME280;6445;52.490;13.378;2023-05-02T03:52:22;51175.84;;;-146.10;86.22
12763;BME280;6445;52.490;13.378;2023-05-02T03:54:47;51133.84;;;-146.10;86.31
12763;BME280;6445;52.490;13.378;2023-05-02T03:57:12;51065.84;;;-146.10;87.20
12763;BME280;6445;52.490;13.378;2023-05-02T03:59:37;51035.84;;;-146.10;87.72
12763;BME280;6445;52.490;13.378;2023-05-02T04:02:05;50939.84;;;-146.10;87.75
12763;BME280;6445;52.490;13.378;2023-05-02T04:04:31;50975.84;;;-146.10;87.32
12763;BME280;6445;52.490;13.378;2023-05-02T04:06:56;50929.84;;;-146.10;88.08
12763;BME280;6445;52.490;13.378;2023-05-02T04:09:21;50851.84;;;-146.10;88.75
12763;BME280;6445;52.490;13.378;2023-05-02T04:11:49;50737.84;;;-146.10;89.19
12763;BME280;6445;52.490;13.378;2023-05-02T04:14:14;50671.88;;;-146.10;89.47
12763;BME280;6445;52.490;13.378;2023-05-02T04:16:39;50659.88;;;-146.10;89.28
12763;BME280;6445;52.490;13.378;2023-05-02T04:19:05;50769.84;;;-146.10;88.16
12763;BME280;6445;52.490;13.378;2023-05-02T04:21:30;50771.84;;;-146.10;88.01
12763;BME280;6445;52.490;13.378;2023-05-02T04:23:55;50801.84;;;-146.10;87.97
12763;BME280;6445;52.490;13.378;2023-05-02T04:26:21;50975.84;;;-146.10;86.63
12763;BME280;6445;52.490;13.378;2023-05-02T04:28:46;50929.84;;;-146.10;86.61
12763;BME280;6445;52.490;13.378;2023-05-02T04:31:11;50977.84;;;-146.10;86.21
12763;BME280;6445;52.490;13.378;2023-05-02T04:33:37;51041.84;;;-146.10;85.61
12763;BME280;6445;52.490;13.378;2023-05-02T04:36:02;51111.84;;;-146.10;85.10
12763;BME280;6445;52.490;13.378;2023-05-02T04:38:27;51167.84;;;-146.10;83.86
12763;BME280;6445;52.490;13.378;2023-05-02T04:40:53;51225.84;;;-146.10;83.15
12763;BME280;6445;52.490;13.378;2023-05-02T04:43:18;51369.88;;;-146.10;80.85
12763;BME280;6445;52.490;13.378;2023-05-02T04:45:43;51423.88;;;-146.10;79.89
12763;BME280;6445;52.490;13.378;2023-05-02T04:48:09;51481.88;;;-146.10;78.49
12763;BME280;6445;52.490;13.378;2023-05-02T04:50:34;51495.88;;;-146.10;77.95
12763;BME280;6445;52.490;13.378;2023-05-02T04:52:59;51597.88;;;-146.10;75.32
12763;BME280;6445;52.490;13.378;2023-05-02T04:55:24;51627.91;;;-146.10;73.43
12763;BME280;6445;52.490;13.378;2023-05-02T04:57:50;51671.91;;;-146.10;74.04
12763;BME280;6445;52.490;13.378;2023-05-02T05:00:15;51685.91;;;-146.10;73.11
12763;BME280;6445;52.490;13.378;2023-05-02T05:02:41;51739.91;;;-146.10;71.40
12763;BME280;6445;52.490;13.378;2023-05-02T05:05:07;51719.91;;;-146.10;72.65
12763;BME280;6445;52.490;13.378;2023-05-02T05:07:32;51739.91;;;-146.10;71.30
12763;BME280;6445;52.490;13.378;2023-05-02T05:09:58;51739.91;;;-146.10;71.33
12763;BME280;6445;52.490;13.378;2023-05-02T05:12:23;51731.91;;;-146.10;72.27
12763;BME280;6445;52.490;13.378;2023-05-02T05:14:48;51685.91;;;-146.10;74.11
12763;BME280;6445;52.490;13.378;2023-05-02T05:17:14;51719.91;;;-146.10;72.93
12763;BME280;6445;52.490;13.378;2023-05-02T05:19:40;51701.91;;;-146.10;73.96
12763;BME280;6445;52.490;13.378;2023-05-02T05:22:05;51663.91;;;-146.10;73.49
12763;BME280;6445;52.490;13.378;2023-05-02T05:24:30;51725.91;;;-146.10;73.14
12763;BME280;6445;52.490;13.378;2023-05-02T05:26:55;51693.91;;;-146.10;73.84
12763;BME280;6445;52.490;13.378;2023-05-02T05:29:21;51721.91;;;-146.10;73.65
12763;BME280;6445;52.490;13.378;2023-05-02T05:31:46;51783.91;;;-146.10;69.45
12763;BME280;6445;52.490;13.378;2023-05-02T05:34:12;51841.94;;;-146.10;65.30
12763;BME280;6445;52.490;13.378;2023-05-02T05:36:39;51925.94;;;-146.10;60.49
12763;BME280;6445;52.490;13.378;2023-05-02T05:39:04;52007.97;;;-146.10;56.91
12763;BME280;6445;52.490;13.378;2023-05-02T05:41:29;52061.97;;;-146.10;54.12
12763;BME280;6445;52.490;13.378;2023-05-02T05:43:55;52104.00;;;-146.10;51.67
12763;BME280;6445;52.490;13.378;2023-05-02T05:46:20;52114.00;;;-146.10;50.73
12763;BME280;6445;52.490;13.378;2023-05-02T05:48:46;52084.00;;;-146.10;50.75
12763;BME280;6445;52.490;13.378;2023-05-02T05:51:11;52120.00;;;-146.10;49.02
12763;BME280;6445;52.490;13.378;2023-05-02T05:53:36;52164.00;;;-146.10;46.28
12763;BME280;6445;52.490;13.378;2023-05-02T05:56:11;52150.00;;;-146.10;46.20
12763;BME280;6445;52.490;13.378;2023-05-02T05:58:37;52134.00;;;-146.10;48.20
12763;BME280;6445;52.490;13.378;2023-05-02T06:01:03;52170.00;;;-146.10;46.01
12763;BME280;6445;52.490;13.378;2023-05-02T06:03:28;52132.00;;;-146.10;48.51
12763;BME280;6445;52.490;13.378;2023-05-02T06:05:54;52128.00;;;-146.10;47.84
12763;BME280;6445;52.490;13.378;2023-05-02T06:08:19;52160.00;;;-146.10;46.75
12763;BME280;6445;52.490;13.378;2023-05-02T06:10:45;52220.03;;;-146.10;43.62
12763;BME280;6445;52.490;13.378;2023-05-02T06:13:11;52228.03;;;-146.10;43.25
12763;BME280;6445;52.490;13.378;2023-05-02T06:15:36;52216.03;;;-146.10;43.58
12763;BME280;6445;52.490;13.378;2023-05-02T06:18:01;52230.03;;;-146.10;43.09
12763;BME280;6445;52.490;13.378;2023-05-02T06:20:26;52234.03;;;-146.10;43.52
12763;BME280;6445;52.490;13.378;2023-05-02T06:22:52;52216.03;;;-146.10;43.89
12763;BME280;6445;52.490;13.378;2023-05-02T06:25:17;52230.03;;;-146.10;43.32
12763;BME280;6445;52.490;13.378;2023-05-02T06:27:42;52224.03;;;-146.10;43.79
12763;BME280;6445;52.490;13.378;2023-05-02T06:30:08;52220.03;;;-146.10;44.05
12763;BME280;6445;52.490;13.378;2023-05-02T06:32:33;52270.03;;;-146.10;42.11
12763;BME280;6445;52.490;13.378;2023-05-02T06:34:58;52278.03;;;-146.10;40.93
12763;BME280;6445;52.490;13.378;2023-05-02T06:37:23;52300.06;;;-146.10;40.86
12763;BME280;6445;52.490;13.378;2023-05-02T06:39:49;52338.06;;;-146.10;39.08
12763;BME280;6445;52.490;13.378;2023-05-02T06:42:14;52272.03;;;-146.10;41.00
12763;BME280;6445;52.490;13.378;2023-05-02T06:44:40;52292.06;;;-146.10;40.44
12763;BME280;6445;52.490;13.378;2023-05-02T06:47:05;52282.03;;;-146.10;41.79
12763;BME280;6445;52.490;13.378;2023-05-02T06:51:56;52308.06;;;-146.10;41.20
12763;BME280;6445;52.490;13.378;2023-05-02T06:54:21;52340.06;;;-146.10;39.78
12763;BME280;6445;52.490;13.378;2023-05-02T06:56:47;52300.06;;;-146.10;40.72
12763;BME280;6445;52.490;13.378;2023-05-02T06:59:12;52262.03;;;-146.10;42.42
12763;BME280;6445;52.490;13.378;2023-05-02T07:01:37;52258.03;;;-146.10;42.60
12763;BME280;6445;52.490;13.378;2023-05-02T07:04:02;52292.06;;;-146.10;40.95
12763;BME280;6445;52.490;13.378;2023-05-02T07:06:29;52298.06;;;-146.10;42.69
12763;BME280;6445;52.490;13.378;2023-05-02T07:08:55;52306.06;;;-146.10;41.78
12763;BME280;6445;52.490;13.378;2023-05-02T07:11:20;52412.09;;;-146.10;38.71
12763;BME280;6445;52.490;13.378;2023-05-02T07:13:47;52398.09;;;-146.10;38.53
12763;BME280;6445;52.490;13.378;2023-05-02T07:16:12;52356.06;;;-146.10;39.25
12763;BME280;6445;52.490;13.378;2023-05-02T07:18:38;52226.03;;;-146.10;42.43
12763;BME280;6445;52.490;13.378;2023-05-02T07:21:03;52164.00;;;-146.10;47.80
12763;BME280;6445;52.490;13.378;2023-05-02T07:23:28;52152.00;;;-146.10;50.16
12763;BME280;6445;52.490;13.378;2023-05-02T07:25:54;52130.00;;;-146.10;51.05
12763;BME280;6445;52.490;13.378;2023-05-02T07:28:19;52138.00;;;-146.10;51.42
12763;BME280;6445;52.490;13.378;2023-05-02T07:30:44;52188.03;;;-146.10;49.52
12763;BME280;6445;52.490;13.378;2023-05-02T07:33:10;52134.00;;;-146.10;52.86
12763;BME280;6445;52.490;13.378;2023-05-02T07:35:35;52136.00;;;-146.10;53.76
12763;BME280;6445;52.490;13.378;2023-05-02T07:38:00;52108.00;;;-146.10;55.22
12763;BME280;6445;52.490;13.378;2023-05-02T07:40:25;52120.00;;;-146.10;56.13
12763;BME280;6445;52.490;13.378;2023-05-02T07:42:52;52080.00;;;-146.10;59.56
12763;BME280;6445;52.490;13.378;2023-05-02T07:45:17;51999.97;;;-146.10;64.19
12763;BME280;6445;52.490;13.378;2023-05-02T07:47:44;51997.97;;;-146.10;62.80
12763;BME280;6445;52.490;13.378;2023-05-02T07:50:10;51987.97;;;-146.10;65.14
12763;BME280;6445;52.490;13.378;2023-05-02T07:52:35;51947.97;;;-146.10;68.18
12763;BME280;6445;52.490;13.378;2023-05-02T07:55:01;51759.91;;;-146.10;75.91
12763;BME280;6445;52.490;13.378;2023-05-02T07:57:26;51671.91;;;-146.10;77.93
12763;BME280;6445;52.490;13.378;2023-05-02T07:59:51;51597.88;;;-146.10;78.71
12763;BME280;6445;52.490;13.378;2023-05-02T08:02:17;51659.91;;;-146.10;77.15
12763;BME280;6445;52.490;13.378;2023-05-02T08:04:44;51691.91;;;-146.10;76.83
12763;BME280;6445;52.490;13.378;2023-05-02T08:07:09;51725.91;;;-146.10;75.57
12763;BME280;6445;52.490;13.378;2023-05-02T08:09:35;51739.91;;;-146.10;74.77
12763;BME280;6445;52.490;13.378;2023-05-02T08:12:00;51693.91;;;-146.10;75.65
12763;BME280;6445;52.490;13.378;2023-05-02T08:14:27;51697.91;;;-146.10;76.54
12763;BME280;6445;52.490;13.378;2023-05-02T08:16:52;51803.94;;;-146.10;72.44
12763;BME280;6445;52.490;13.378;2023-05-02T08:19:18;51749.91;;;-146.10;74.56
12763;BME280;6445;52.490;13.378;2023-05-02T08:21:43;51757.91;;;-146.10;74.56
12763;BME280;6445;52.490;13.378;2023-05-02T08:24:08;51761.91;;;-146.10;74.53
12763;BME280;6445;52.490;13.378;2023-05-02T08:26:33;51737.91;;;-146.10;74.77
12763;BME280;6445;52.490;13.378;2023-05-02T08:28:59;51625.91;;;-146.10;79.00
12763;BME280;6445;52.490;13.378;2023-05-02T08:31:24;51577.88;;;-146.10;80.46
12763;BME280;6445;52.490;13.378;2023-05-02T08:33:49;51447.88;;;-146.10;83.04
12763;BME280;6445;52.490;13.378;2023-05-02T08:36:16;51469.88;;;-146.10;82.00
12763;BME280;6445;52.490;13.378;2023-05-02T08:38:43;51571.88;;;-146.10;79.12
12763;BME280;6445;52.490;13.378;2023-05-02T08:41:16;51663.91;;;-146.10;76.18
12763;BME280;6445;52.490;13.378;2023-05-02T08:43:42;51697.91;;;-146.10;75.12
12763;BME280;6445;52.490;13.378;2023-05-02T08:46:09;51715.91;;;-146.10;75.50
12763;BME280;6445;52.490;13.378;2023-05-02T08:48:44;51749.91;;;-146.10;73.85
12763;BME280;6445;52.490;13.378;2023-05-02T08:51:14;51801.94;;;-146.10;72.87
12763;BME280;6445;52.490;13.378;2023-05-02T08:53:40;51789.91;;;-146.10;73.25
12763;BME280;6445;52.490;13.378;2023-05-02T08:56:06;51739.91;;;-146.10;75.78
12763;BME280;6445;52.490;13.378;2023-05-02T08:58:34;51767.91;;;-146.10;74.62
12763;BME280;6445;52.490;13.378;2023-05-02T09:01:00;51743.91;;;-146.10;74.90
12763;BME280;6445;52.490;13.378;2023-05-02T09:03:34;51643.91;;;-146.10;77.85
12763;BME280;6445;52.490;13.378;2023-05-02T09:08:28;51631.91;;;-146.10;78.80
12763;BME280;6445;52.490;13.378;2023-05-02T09:10:53;51575.88;;;-146.10;80.74
12763;BME280;6445;52.490;13.378;2023-05-02T09:13:40;51609.88;;;-146.10;78.52
12763;BME280;6445;52.490;13.378;2023-05-02T09:18:41;51585.88;;;-146.10;79.00
12763;BME280;6445;52.490;13.378;2023-05-02T09:21:12;51585.88;;;-146.10;78.78
12763;BME280;6445;52.490;13.378;2023-05-02T09:23:39;51741.91;;;-146.10;73.73
12763;BME280;6445;52.490;13.378;2023-05-02T09:26:17;51811.94;;;-146.10;71.55
12763;BME280;6445;52.490;13.378;2023-05-02T09:28:47;51781.91;;;-146.10;73.85
12763;BME280;6445;52.490;13.378;2023-05-02T09:31:15;51723.91;;;-146.10;75.79
12763;BME280;6445;52.490;13.378;2023-05-02T09:33:40;51655.91;;;-146.10;78.36
12763;BME280;6445;52.490;13.378;2023-05-02T09:36:08;51443.88;;;-146.10;83.10
12763;BME280;6445;52.490;13.378;2023-05-02T09:38:34;51315.84;;;-146.10;85.04
12763;BME280;6445;52.490;13.378;2023-05-02T09:40:59;51185.84;;;-146.10;86.16
12763;BME280;6445;52.490;13.378;2023-05-02T09:43:28;51241.84;;;-146.10;85.16
12763;BME280;6445;52.490;13.378;2023-05-02T09:46:03;50955.84;;;-146.10;87.75
12763;BME280;6445;52.490;13.378;2023-05-02T09:48:30;50623.88;;;-146.10;90.28
12763;BME280;6445;52.490;13.378;2023-05-02T09:50:56;50419.91;;;-146.10;90.65
12763;BME280;6445;52.490;13.378;2023-05-02T09:53:24;51019.84;;;-146.10;84.94
12763;BME280;6445;52.490;13.378;2023-05-02T09:55:58;51271.84;;;-146.10;82.52
12763;BME280;6445;52.490;13.378;2023-05-02T09:58:24;51241.84;;;-146.10;83.38
12763;BME280;6445;52.490;13.378;2023-05-02T10:00:50;51415.88;;;-146.10;80.35
12763;BME280;6445;52.490;13.378;2023-05-02T10:03:17;51353.88;;;-146.10;82.00
12763;BME280;6445;52.490;13.378;2023-05-02T10:05:44;51507.88;;;-146.10;79.07
12763;BME280;6445;52.490;13.378;2023-05-02T10:08:10;51631.91;;;-146.10;75.53
12763;BME280;6445;52.490;13.378;2023-05-02T10:10:39;51645.91;;;-146.10;76.04
12763;BME280;6445;52.490;13.378;2023-05-02T10:13:05;51631.91;;;-146.10;77.98
12763;BME280;6445;52.490;13.378;2023-05-02T10:15:32;51195.84;;;-146.10;85.74
12763;BME280;6445;52.490;13.378;2023-05-02T10:17:58;50951.84;;;-146.10;87.89
12763;BME280;6445;52.490;13.378;2023-05-02T10:20:30;50747.84;;;-146.10;88.45
12763;BME280;6445;52.490;13.378;2023-05-02T10:22:59;51037.84;;;-146.10;85.32
12763;BME280;6445;52.490;13.378;2023-05-02T10:25:25;51093.84;;;-146.10;85.43
12763;BME280;6445;52.490;13.378;2023-05-02T10:27:51;50435.88;;;-146.10;91.19
12763;BME280;6445;52.490;13.378;2023-05-02T10:30:17;50181.94;;;-146.10;91.04
12763;BME280;6445;52.490;13.378;2023-05-02T10:32:45;50703.84;;;-146.10;86.99
12763;BME280;6445;52.490;13.378;2023-05-02T10:35:12;50853.84;;;-146.10;86.40
12763;BME280;6445;52.490;13.378;2023-05-02T10:37:39;50611.88;;;-146.10;88.54
12763;BME280;6445;52.490;13.378;2023-05-02T10:40:08;49840.03;;;-146.10;93.03
12763;BME280;6445;52.490;13.378;2023-05-02T10:42:36;48406.72;;;-146.10;96.11
12763;BME280;6445;52.490;13.378;2023-05-02T10:45:02;48990.38;;;-146.10;93.99
12763;BME280;6445;52.490;13.378;2023-05-02T10:47:28;49152.28;;;-146.10;93.73
12763;BME280;6445;52.490;13.378;2023-05-02T10:49:59;48738.50;;;-146.10;94.69
12763;BME280;6445;52.490;13.378;2023-05-02T10:52:35;49266.25;;;-146.10;93.22
12763;BME280;6445;52.490;13.378;2023-05-02T10:55:23;49644.09;;;-146.10;92.52
12763;BME280;6445;52.490;13.378;2023-05-02T11:02:49;47653.28;;;-146.10;96.70
12763;BME280;6445;52.490;13.378;2023-05-02T11:05:15;47951.03;;;-146.10;96.30
12763;BME280;6445;52.490;13.378;2023-05-02T11:07:41;48414.72;;;-146.10;94.84
12763;BME280;6445;52.490;13.378;2023-05-02T11:12:47;47847.13;;;-146.10;96.39
12763;BME280;6445;52.490;13.378;2023-05-02T11:18:02;50717.84;;;-146.10;85.75
12763;BME280;6445;52.490;13.378;2023-05-02T11:20:28;51257.84;;;-146.10;81.82
12763;BME280;6445;52.490;13.378;2023-05-02T11:22:56;51241.84;;;-146.10;82.05
12763;BME280;6445;52.490;13.378;2023-05-02T11:25:42;50887.84;;;-146.10;86.85
12763;BME280;6445;52.490;13.378;2023-05-02T11:31:08;51527.88;;;-146.10;77.47
12763;BME280;6445;52.490;13.378;2023-05-02T11:33:34;51639.91;;;-146.10;74.40
12763;BME280;6445;52.490;13.378;2023-05-02T11:36:00;51727.91;;;-146.10;71.76
12763;BME280;6445;52.490;13.378;2023-05-02T11:38:34;51791.91;;;-146.10;70.64
12763;BME280;6445;52.490;13.378;2023-05-02T11:41:00;51841.94;;;-146.10;67.48
12763;BME280;6445;52.490;13.378;2023-05-02T11:43:27;51847.94;;;-146.10;66.96
12763;BME280;6445;52.490;13.378;2023-05-02T11:45:53;51931.94;;;-146.10;63.68
12763;BME280;6445;52.490;13.378;2023-05-02T11:48:21;51947.97;;;-146.10;61.34
12763;BME280;6445;52.490;13.378;2023-05-02T11:50:48;51957.97;;;-146.10;61.08
12763;BME280;6445;52.490;13.378;2023-05-02T11:53:25;51907.94;;;-146.10;63.86
12763;BME280;6445;52.490;13.378;2023-05-02T11:55:54;51909.94;;;-146.10;65.16
12763;BME280;6445;52.490;13.378;2023-05-02T11:58:22;51907.94;;;-146.10;64.87
12763;BME280;6445;52.490;13.378;2023-05-02T12:00:49;51921.94;;;-146.10;63.23
12763;BME280;6445;52.490;13.378;2023-05-02T12:03:23;51981.97;;;-146.10;60.61
12763;BME280;6445;52.490;13.378;2023-05-02T12:05:49;51993.97;;;-146.10;58.48
12763;BME280;6445;52.490;13.378;2023-05-02T12:08:33;51949.97;;;-146.10;61.27
12763;BME280;6445;52.490;13.378;2023-05-02T12:10:58;51895.94;;;-146.10;64.04
12763;BME280;6445;52.490;13.378;2023-05-02T12:13:24;51913.94;;;-146.10;63.92
12763;BME280;6445;52.490;13.378;2023-05-02T12:15:51;51959.97;;;-146.10;61.09
12763;BME280;6445;52.490;13.378;2023-05-02T12:18:18;51935.94;;;-146.10;62.54
12763;BME280;6445;52.490;13.378;2023-05-02T12:20:44;51881.94;;;-146.10;65.23
12763;BME280;6445;52.490;13.378;2023-05-02T12:23:10;51933.94;;;-146.10;62.86
12763;BME280;6445;52.490;13.378;2023-05-02T12:25:37;51971.97;;;-146.10;61.29
12763;BME280;6445;52.490;13.378;2023-05-02T12:28:03;51957.97;;;-146.10;60.07
12763;BME280;6445;52.490;13.378;2023-05-02T12:30:29;51963.97;;;-146.10;58.97
12763;BME280;6445;52.490;13.378;2023-05-02T12:32:56;51977.97;;;-146.10;58.33
12763;BME280;6445;52.490;13.378;2023-05-02T12:35:22;51987.97;;;-146.10;58.33
12763;BME280;6445;52.490;13.378;2023-05-02T12:37:48;51985.97;;;-146.10;56.47
12763;BME280;6445;52.490;13.378;2023-05-02T12:40:15;52027.97;;;-146.10;55.36
12763;BME280;6445;52.490;13.378;2023-05-02T12:42:41;52009.97;;;-146.10;55.20
12763;BME280;6445;52.490;13.378;2023-05-02T12:45:15;52027.97;;;-146.10;54.34
12763;BME280;6445;52.490;13.378;2023-05-02T12:47:44;52065.97;;;-146.10;51.96
12763;BME280;6445;52.490;13.378;2023-05-02T12:50:10;52078.00;;;-146.10;50.38
12763;BME280;6445;52.490;13.378;2023-05-02T12:52:49;52067.97;;;-146.10;51.33
12763;BME280;6445;52.490;13.378;2023-05-02T12:55:19;52092.00;;;-146.10;50.01
12763;BME280;6445;52.490;13.378;2023-05-02T12:57:46;52128.00;;;-146.10;45.69
12763;BME280;6445;52.490;13.378;2023-05-02T13:00:12;52118.00;;;-146.10;44.02
12763;BME280;6445;52.490;13.378;2023-05-02T13:02:37;52204.03;;;-146.10;42.42
12763;BME280;6445;52.490;13.378;2023-05-02T13:05:16;52226.03;;;-146.10;39.99
12763;BME280;6445;52.490;13.378;2023-05-02T13:07:41;52324.06;;;-146.10;37.10
12763;BME280;6445;52.490;13.378;2023-05-02T13:10:07;52300.06;;;-146.10;37.57
12763;BME280;6445;52.490;13.378;2023-05-02T13:12:33;52384.09;;;-146.10;35.81
12763;BME280;6445;52.490;13.378;2023-05-02T13:15:01;52194.03;;;-146.10;37.51